createdAt,value
2022-09-29T00:00:42.125Z,4.20
2022-09-29T00:11:07.830Z,3.96
2022-09-29T00:21:14.450Z,3.74
2022-09-29T00:31:16.797Z,3.50
2022-09-29T00:41:28.876Z,3.23
2022-09-29T00:51:33.860Z,3.16
2022-09-29T01:01:36.392Z,3.03
2022-09-29T01:11:38.609Z,2.92
2022-09-29T01:21:49.873Z,2.78
2022-09-29T01:32:00.553Z,2.65
2022-09-29T01:42:08.125Z,2.53
2022-09-29T01:52:15.064Z,2.36
2022-09-29T02:02:24.695Z,2.28
2022-09-29T02:12:30.674Z,2.22
2022-09-29T02:22:34.858Z,2.16
2022-09-29T02:32:36.972Z,2.08
2022-09-29T02:42:54.128Z,1.97
2022-09-29T02:53:18.120Z,1.84
2022-09-29T03:03:20.290Z,1.75
2022-09-29T03:13:22.471Z,1.80
2022-09-29T03:23:24.667Z,1.82
2022-09-29T03:33:26.779Z,1.76
2022-09-29T03:43:28.858Z,1.65
2022-09-29T03:53:31.272Z,1.62
2022-09-29T04:03:33.489Z,1.51
2022-09-29T04:13:35.757Z,1.40
2022-09-29T04:23:38.637Z,1.36
2022-09-29T04:33:41.719Z,1.36
2022-09-29T04:43:44.120Z,1.34
2022-09-29T04:53:46.201Z,1.28
2022-09-29T05:03:48.281Z,1.16
2022-09-29T05:13:51.112Z,1.06
2022-09-29T05:23:53.346Z,1.04
2022-09-29T05:33:56.795Z,1.11
2022-09-29T05:44:01.376Z,1.17
2022-09-29T05:54:03.602Z,1.29
2022-09-29T06:04:05.760Z,1.42
2022-09-29T06:14:08.290Z,1.64
2022-09-29T06:24:10.669Z,1.87
2022-09-29T06:34:12.913Z,2.35
2022-09-29T06:44:15.879Z,2.66
2022-09-29T06:54:20.858Z,3.04
2022-09-29T07:04:23.823Z,3.60
2022-09-29T07:14:26.195Z,3.83
2022-09-29T07:24:28.391Z,3.99
2022-09-29T07:34:30.518Z,4.36
2022-09-29T07:44:32.900Z,4.69
2022-09-29T07:54:35.373Z,5.01
2022-09-29T08:04:37.489Z,5.37
2022-09-29T08:14:43.914Z,5.84
2022-09-29T08:24:46.740Z,6.36
2022-09-29T08:34:48.900Z,7.11
2022-09-29T08:45:13.347Z,7.87
2022-09-29T08:55:21.581Z,8.53
2022-09-29T09:05:51.350Z,9.41
2022-09-29T09:16:05.433Z,10.30
2022-09-29T09:26:10.233Z,11.03
2022-09-29T09:36:42.933Z,11.76
2022-09-29T09:46:58.943Z,12.05
2022-09-29T09:57:16.136Z,12.06
2022-09-29T10:07:20.440Z,12.02
2022-09-29T10:17:28.012Z,12.15
2022-09-29T10:27:30.888Z,12.15
2022-09-29T10:37:46.496Z,12.10
2022-09-29T10:48:09.134Z,12.20
2022-09-29T10:58:44.605Z,12.34
2022-09-29T11:09:05.643Z,12.87
2022-09-29T11:19:11.346Z,13.05
2022-09-29T11:29:55.456Z,13.22
2022-09-29T11:40:12.161Z,13.49
2022-09-29T11:50:33.605Z,13.55
2022-09-29T12:01:23.849Z,13.90
2022-09-29T12:22:01.797Z,14.11
2022-09-29T12:32:21.497Z,14.08
2022-09-29T12:42:26.935Z,13.95
2022-09-29T12:52:44.349Z,14.08
2022-09-29T13:03:30.294Z,14.12
2022-09-29T13:14:04.628Z,14.38
2022-09-29T13:24:17.661Z,14.42
2022-09-29T13:34:31.142Z,14.16
2022-09-29T13:44:33.299Z,13.94
2022-09-29T13:54:42.459Z,13.63
2022-09-29T14:04:49.249Z,13.33
2022-09-29T14:14:57.173Z,13.23
2022-09-29T14:25:19.531Z,13.33
2022-09-29T14:35:29.658Z,13.52
2022-09-29T14:46:06.976Z,13.81
2022-09-29T14:56:52.024Z,13.89
2022-09-29T15:06:54.339Z,13.75
2022-09-29T15:17:03.429Z,13.41
2022-09-29T15:27:09.989Z,12.98
2022-09-29T15:37:15.105Z,12.35
2022-09-29T15:47:23.625Z,11.72
2022-09-29T15:57:48.934Z,10.96
2022-09-29T16:08:03.492Z,10.36
2022-09-29T16:18:16.291Z,9.78
2022-09-29T16:28:27.040Z,9.15
2022-09-29T16:38:37.284Z,8.70
2022-09-29T16:48:44.630Z,8.27
2022-09-29T16:59:03.537Z,7.89
2022-09-29T17:09:06.600Z,7.68
2022-09-29T17:19:11.191Z,7.60
2022-09-29T17:29:13.395Z,7.45
2022-09-29T17:39:16.428Z,7.33
2022-09-29T17:49:18.682Z,7.28
2022-09-29T17:59:21.493Z,7.21
2022-09-29T18:09:23.639Z,7.17
2022-09-29T18:19:25.963Z,7.14
2022-09-29T18:29:31.567Z,7.08
2022-09-29T18:39:33.798Z,6.98
2022-09-29T18:49:35.885Z,6.77
2022-09-29T18:59:38.117Z,6.47
2022-09-29T19:09:40.681Z,6.26
2022-09-29T19:19:42.812Z,6.01
2022-09-29T19:29:45.044Z,5.73
2022-09-29T19:39:47.564Z,5.53
2022-09-29T19:49:49.821Z,5.53
2022-09-29T19:59:52.188Z,5.49
2022-09-29T20:09:54.930Z,5.43
2022-09-29T20:19:57.144Z,5.44
2022-09-29T20:29:59.268Z,5.29
2022-09-29T20:40:11.343Z,5.09
2022-09-29T20:50:14.681Z,4.94
2022-09-29T21:00:16.867Z,4.72
2022-09-29T21:10:19.036Z,4.53
2022-09-29T21:20:21.154Z,4.33
2022-09-29T21:30:23.224Z,4.14
2022-09-29T21:40:25.367Z,4.02
2022-09-29T21:50:27.467Z,3.92
2022-09-29T22:00:29.589Z,3.97
2022-09-29T22:10:31.757Z,3.92
2022-09-29T22:20:36.345Z,3.84
2022-09-29T22:30:39.319Z,3.84
2022-09-29T22:40:41.435Z,3.70
2022-09-29T22:50:45.867Z,3.58
2022-09-29T23:00:48.038Z,3.46
2022-09-29T23:10:50.203Z,3.34
2022-09-29T23:20:58.872Z,3.25
2022-09-29T23:31:05.469Z,3.15
2022-09-29T23:41:08.200Z,2.97
2022-09-29T23:51:10.341Z,2.92
